sensor_id;sensor_type;location;lat;lon;timestamp;pressure;altitude;pressure_sealevel;temperature;humidity
63339;BME280;70568;51.378;-1.342;2023-06-10T00:00:06;99948.46;;;16.57;26.75
63339;BME280;70568;51.378;-1.342;2023-06-10T00:02:33;99951.43;;;14.43;27.03
63339;BME280;70568;51.378;-1.342;2023-06-10T00:04:59;99952.36;;;14.23;29.00
63339;BME280;70568;51.378;-1.342;2023-06-10T00:07:26;99950.78;;;14.13;29.21
63339;BME280;70568;51.378;-1.342;2023-06-10T00:09:53;99950.93;;;14.63;28.88
63339;BME280;70568;51.378;-1.342;2023-06-10T00:12:20;99950.76;;;14.32;29.89
63339;BME280;70568;51.378;-1.342;2023-06-10T00:14:47;99946.88;;;15.45;28.21
63339;BME280;70568;51.378;-1.342;2023-06-10T00:17:14;99943.21;;;15.37;28.51
63339;BME280;70568;51.378;-1.342;2023-06-10T00:19:41;99942.67;;;13.12;29.44
63339;BME280;70568;51.378;-1.342;2023-06-10T00:22:08;99941.37;;;14.17;28.28
63339;BME280;70568;51.378;-1.342;2023-06-10T00:24:36;99940.31;;;14.59;29.71
63339;BME280;70568;51.378;-1.342;2023-06-10T00:27:04;99938.44;;;14.38;30.48
63339;BME280;70568;51.378;-1.342;2023-06-10T00:29:30;99939.33;;;14.80;29.69
63339;BME280;70568;51.378;-1.342;2023-06-10T00:31:57;99936.24;;;14.62;29.36
63339;BME280;70568;51.378;-1.342;2023-06-10T00:34:24;99935.96;;;14.79;28.46
63339;BME280;70568;51.378;-1.342;2023-06-10T00:36:51;99938.59;;;11.17;31.19
63339;BME280;70568;51.378;-1.342;2023-06-10T00:39:18;99930.49;;;14.87;28.76
63339;BME280;70568;51.378;-1.342;2023-06-10T00:41:45;99928.43;;;13.99;28.88
63339;BME280;70568;51.378;-1.342;2023-06-10T00:44:12;99930.56;;;15.52;27.81
63339;BME280;70568;51.378;-1.342;2023-06-10T00:46:39;99927.94;;;14.90;27.77
63339;BME280;70568;51.378;-1.342;2023-06-10T00:49:06;99929.60;;;14.21;29.73
63339;BME280;70568;51.378;-1.342;2023-06-10T00:51:33;99931.00;;;13.91;30.44
63339;BME280;70568;51.378;-1.342;2023-06-10T00:54:00;99929.30;;;14.83;28.73
63339;BME280;70568;51.378;-1.342;2023-06-10T00:56:27;99931.32;;;15.75;28.01
63339;BME280;70568;51.378;-1.342;2023-06-10T00:58:54;99930.88;;;15.05;27.91
63339;BME280;70568;51.378;-1.342;2023-06-10T01:01:21;99930.92;;;14.93;28.57
63339;BME280;70568;51.378;-1.342;2023-06-10T01:03:47;99931.55;;;14.94;29.41
63339;BME280;70568;51.378;-1.342;2023-06-10T01:06:28;99928.59;;;15.02;29.19
63339;BME280;70568;51.378;-1.342;2023-06-10T01:09:04;99931.14;;;13.52;30.50
63339;BME280;70568;51.378;-1.342;2023-06-10T01:11:36;99929.23;;;12.76;30.66
63339;BME280;70568;51.378;-1.342;2023-06-10T01:14:05;99925.79;;;13.95;29.71
63339;BME280;70568;51.378;-1.342;2023-06-10T01:16:34;99927.23;;;12.83;29.63
63339;BME280;70568;51.378;-1.342;2023-06-10T01:19:01;99931.02;;;12.93;31.29
63339;BME280;70568;51.378;-1.342;2023-06-10T01:21:27;99931.20;;;13.90;31.09
63339;BME280;70568;51.378;-1.342;2023-06-10T01:23:55;99928.95;;;14.06;30.07
63339;BME280;70568;51.378;-1.342;2023-06-10T01:26:25;99931.48;;;12.61;30.68
63339;BME280;70568;51.378;-1.342;2023-06-10T01:28:59;99934.06;;;10.50;33.07
63339;BME280;70568;51.378;-1.342;2023-06-10T01:31:36;99927.66;;;12.78;31.05
63339;BME280;70568;51.378;-1.342;2023-06-10T01:34:08;99924.00;;;13.50;30.03
63339;BME280;70568;51.378;-1.342;2023-06-10T01:36:38;99921.41;;;12.82;30.15
63339;BME280;70568;51.378;-1.342;2023-06-10T01:39:08;99919.67;;;13.97;29.71
63339;BME280;70568;51.378;-1.342;2023-06-10T01:41:37;99918.44;;;15.09;28.76
63339;BME280;70568;51.378;-1.342;2023-06-10T01:44:04;99920.11;;;12.66;29.08
63339;BME280;70568;51.378;-1.342;2023-06-10T01:46:31;99918.99;;;13.91;28.51
63339;BME280;70568;51.378;-1.342;2023-06-10T01:48:57;99916.43;;;15.05;28.70
63339;BME280;70568;51.378;-1.342;2023-06-10T01:51:24;99917.04;;;14.04;28.82
63339;BME280;70568;51.378;-1.342;2023-06-10T01:53:51;99915.26;;;13.29;28.61
63339;BME280;70568;51.378;-1.342;2023-06-10T01:56:18;99919.19;;;14.08;29.93
63339;BME280;70568;51.378;-1.342;2023-06-10T01:58:45;99915.50;;;13.73;30.02
63339;BME280;70568;51.378;-1.342;2023-06-10T02:01:11;99912.84;;;14.62;29.65
63339;BME280;70568;51.378;-1.342;2023-06-10T02:03:38;99916.87;;;14.00;30.08
63339;BME280;70568;51.378;-1.342;2023-06-10T02:06:05;99915.26;;;14.56;30.18
63339;BME280;70568;51.378;-1.342;2023-06-10T02:08:32;99917.11;;;13.54;29.87
63339;BME280;70568;51.378;-1.342;2023-06-10T02:10:59;99919.18;;;12.75;30.45
63339;BME280;70568;51.378;-1.342;2023-06-10T02:13:26;99918.23;;;12.92;30.02
63339;BME280;70568;51.378;-1.342;2023-06-10T02:15:52;99916.33;;;14.10;29.52
63339;BME280;70568;51.378;-1.342;2023-06-10T02:18:19;99915.95;;;14.10;30.28
63339;BME280;70568;51.378;-1.342;2023-06-10T02:20:46;99914.34;;;12.81;29.79
63339;BME280;70568;51.378;-1.342;2023-06-10T02:23:12;99910.59;;;14.87;28.94
63339;BME280;70568;51.378;-1.342;2023-06-10T02:25:39;99910.82;;;15.61;27.96
63339;BME280;70568;51.378;-1.342;2023-06-10T02:28:06;99908.27;;;15.46;28.87
63339;BME280;70568;51.378;-1.342;2023-06-10T02:30:33;99907.64;;;14.91;28.86
63339;BME280;70568;51.378;-1.342;2023-06-10T02:33:00;99904.47;;;15.19;29.01
63339;BME280;70568;51.378;-1.342;2023-06-10T02:35:26;99904.64;;;14.85;28.83
63339;BME280;70568;51.378;-1.342;2023-06-10T02:37:53;99907.66;;;12.22;31.03
63339;BME280;70568;51.378;-1.342;2023-06-10T02:40:20;99906.97;;;13.19;29.97
63339;BME280;70568;51.378;-1.342;2023-06-10T02:42:47;99908.98;;;14.92;29.40
63339;BME280;70568;51.378;-1.342;2023-06-10T02:45:14;99905.92;;;16.03;28.50
63339;BME280;70568;51.378;-1.342;2023-06-10T02:47:41;99908.87;;;13.94;29.68
63339;BME280;70568;51.378;-1.342;2023-06-10T02:50:09;99914.06;;;14.30;30.22
63339;BME280;70568;51.378;-1.342;2023-06-10T02:52:35;99914.97;;;14.89;29.00
63339;BME280;70568;51.378;-1.342;2023-06-10T02:55:02;99916.19;;;13.37;30.52
63339;BME280;70568;51.378;-1.342;2023-06-10T02:57:29;99911.99;;;14.50;29.33
63339;BME280;70568;51.378;-1.342;2023-06-10T02:59:55;99907.63;;;13.60;29.22
63339;BME280;70568;51.378;-1.342;2023-06-10T03:02:22;99907.66;;;14.26;29.03
63339;BME280;70568;51.378;-1.342;2023-06-10T03:04:49;99907.95;;;13.20;29.88
63339;BME280;70568;51.378;-1.342;2023-06-10T03:07:16;99906.77;;;15.12;28.46
63339;BME280;70568;51.378;-1.342;2023-06-10T03:09:42;99906.89;;;15.69;28.64
63339;BME280;70568;51.378;-1.342;2023-06-10T03:12:10;99908.81;;;14.12;29.47
63339;BME280;70568;51.378;-1.342;2023-06-10T03:14:37;99910.78;;;13.17;29.46
63339;BME280;70568;51.378;-1.342;2023-06-10T03:17:04;99908.12;;;15.10;29.50
63339;BME280;70568;51.378;-1.342;2023-06-10T03:19:30;99907.28;;;11.83;30.18
63339;BME280;70568;51.378;-1.342;2023-06-10T03:22:07;99907.63;;;13.04;29.58
63339;BME280;70568;51.378;-1.342;2023-06-10T03:24:34;99908.54;;;16.54;28.45
63339;BME280;70568;51.378;-1.342;2023-06-10T03:27:01;99905.82;;;15.26;27.94
63339;BME280;70568;51.378;-1.342;2023-06-10T03:29:28;99906.25;;;14.18;28.22
63339;BME280;70568;51.378;-1.342;2023-06-10T03:31:55;99902.59;;;14.57;27.85
63339;BME280;70568;51.378;-1.342;2023-06-10T03:34:22;99904.69;;;14.58;29.33
63339;BME280;70568;51.378;-1.342;2023-06-10T03:36:49;99905.87;;;14.47;29.51
63339;BME280;70568;51.378;-1.342;2023-06-10T03:39:16;99905.37;;;13.72;29.59
63339;BME280;70568;51.378;-1.342;2023-06-10T03:41:43;99903.50;;;15.15;28.46
63339;BME280;70568;51.378;-1.342;2023-06-10T03:44:10;99902.68;;;12.99;29.97
63339;BME280;70568;51.378;-1.342;2023-06-10T03:46:37;99905.25;;;11.67;31.73
63339;BME280;70568;51.378;-1.342;2023-06-10T03:49:04;99898.27;;;13.49;30.29
63339;BME280;70568;51.378;-1.342;2023-06-10T03:51:31;99899.67;;;13.66;29.30
63339;BME280;70568;51.378;-1.342;2023-06-10T03:53:58;99899.76;;;13.69;28.86
63339;BME280;70568;51.378;-1.342;2023-06-10T03:56:25;99902.19;;;14.03;30.11
63339;BME280;70568;51.378;-1.342;2023-06-10T03:58:51;99904.14;;;14.15;29.25
63339;BME280;70568;51.378;-1.342;2023-06-10T04:01:18;99906.30;;;14.79;29.16
63339;BME280;70568;51.378;-1.342;2023-06-10T04:03:45;99905.81;;;14.87;28.41
63339;BME280;70568;51.378;-1.342;2023-06-10T04:06:12;99903.72;;;15.33;27.63
63339;BME280;70568;51.378;-1.342;2023-06-10T04:08:39;99903.18;;;15.00;28.20
63339;BME280;70568;51.378;-1.342;2023-06-10T04:11:05;99904.54;;;13.53;28.44
63339;BME280;70568;51.378;-1.342;2023-06-10T04:13:32;99903.00;;;15.09;27.72
63339;BME280;70568;51.378;-1.342;2023-06-10T04:15:58;99901.90;;;14.35;28.25
63339;BME280;70568;51.378;-1.342;2023-06-10T04:18:25;99903.49;;;15.89;27.41
63339;BME280;70568;51.378;-1.342;2023-06-10T04:20:52;99902.71;;;14.87;28.08
63339;BME280;70568;51.378;-1.342;2023-06-10T04:23:19;99904.29;;;15.28;27.94
63339;BME280;70568;51.378;-1.342;2023-06-10T04:25:45;99904.21;;;14.72;27.56
63339;BME280;70568;51.378;-1.342;2023-06-10T04:28:13;99907.07;;;15.51;28.72
63339;BME280;70568;51.378;-1.342;2023-06-10T04:30:40;99906.26;;;14.31;28.60
63339;BME280;70568;51.378;-1.342;2023-06-10T04:33:06;99905.88;;;13.17;29.82
63339;BME280;70568;51.378;-1.342;2023-06-10T04:35:33;99903.28;;;14.79;28.57
63339;BME280;70568;51.378;-1.342;2023-06-10T04:38:00;99902.81;;;15.53;28.88
63339;BME280;70568;51.378;-1.342;2023-06-10T04:40:26;99902.76;;;14.86;28.60
63339;BME280;70568;51.378;-1.342;2023-06-10T04:42:53;99901.33;;;14.08;28.45
63339;BME280;70568;51.378;-1.342;2023-06-10T04:45:20;99901.52;;;14.28;28.65
63339;BME280;70568;51.378;-1.342;2023-06-10T04:47:47;99905.77;;;13.67;29.94
63339;BME280;70568;51.378;-1.342;2023-06-10T04:50:14;99909.77;;;14.07;29.20
63339;BME280;70568;51.378;-1.342;2023-06-10T04:52:41;99908.33;;;12.85;30.16
63339;BME280;70568;51.378;-1.342;2023-06-10T04:55:09;99910.31;;;11.99;31.31
63339;BME280;70568;51.378;-1.342;2023-06-10T04:57:35;99905.38;;;14.25;30.50
63339;BME280;70568;51.378;-1.342;2023-06-10T05:00:03;99901.11;;;13.62;30.16
63339;BME280;70568;51.378;-1.342;2023-06-10T05:02:30;99899.66;;;13.89;29.52
63339;BME280;70568;51.378;-1.342;2023-06-10T05:04:57;99903.30;;;10.86;31.37
63339;BME280;70568;51.378;-1.342;2023-06-10T05:07:24;99902.97;;;13.99;29.44
63339;BME280;70568;51.378;-1.342;2023-06-10T05:09:51;99898.57;;;14.59;29.77
63339;BME280;70568;51.378;-1.342;2023-06-10T05:12:18;99898.99;;;12.58;30.10
63339;BME280;70568;51.378;-1.342;2023-06-10T05:14:45;99893.91;;;14.17;29.22
63339;BME280;70568;51.378;-1.342;2023-06-10T05:17:12;99895.64;;;13.25;30.01
63339;BME280;70568;51.378;-1.342;2023-06-10T05:19:39;99897.02;;;12.81;30.56
63339;BME280;70568;51.378;-1.342;2023-06-10T05:22:07;99898.45;;;15.76;29.14
63339;BME280;70568;51.378;-1.342;2023-06-10T05:24:33;99896.37;;;15.56;29.88
63339;BME280;70568;51.378;-1.342;2023-06-10T05:27:00;99895.83;;;14.06;29.17
63339;BME280;70568;51.378;-1.342;2023-06-10T05:29:27;99896.96;;;14.53;29.70
63339;BME280;70568;51.378;-1.342;2023-06-10T05:31:53;99900.06;;;14.43;30.16
63339;BME280;70568;51.378;-1.342;2023-06-10T05:34:20;99901.25;;;14.77;30.51
63339;BME280;70568;51.378;-1.342;2023-06-10T05:36:47;99905.27;;;14.42;31.62
63339;BME280;70568;51.378;-1.342;2023-06-10T05:39:13;99904.91;;;12.63;33.29
63339;BME280;70568;51.378;-1.342;2023-06-10T05:41:40;99902.13;;;13.65;30.95
63339;BME280;70568;51.378;-1.342;2023-06-10T05:44:07;99904.07;;;13.82;31.42
63339;BME280;70568;51.378;-1.342;2023-06-10T05:46:33;99897.32;;;12.28;32.45
63339;BME280;70568;51.378;-1.342;2023-06-10T05:49:00;99900.45;;;13.27;31.89
63339;BME280;70568;51.378;-1.342;2023-06-10T05:51:27;99899.85;;;11.86;33.63
63339;BME280;70568;51.378;-1.342;2023-06-10T05:53:54;99901.06;;;13.02;31.96
63339;BME280;70568;51.378;-1.342;2023-06-10T05:56:21;99898.60;;;15.93;29.02
63339;BME280;70568;51.378;-1.342;2023-06-10T05:58:48;99902.20;;;14.15;29.90
63339;BME280;70568;51.378;-1.342;2023-06-10T06:01:15;99906.45;;;14.85;29.54
63339;BME280;70568;51.378;-1.342;2023-06-10T06:03:42;99901.15;;;15.18;28.81
63339;BME280;70568;51.378;-1.342;2023-06-10T06:06:10;99907.14;;;15.44;29.71
63339;BME280;70568;51.378;-1.342;2023-06-10T06:08:37;99907.71;;;14.92;30.40
63339;BME280;70568;51.378;-1.342;2023-06-10T06:11:03;99908.43;;;15.09;29.33
63339;BME280;70568;51.378;-1.342;2023-06-10T06:13:30;99909.06;;;15.31;28.57
63339;BME280;70568;51.378;-1.342;2023-06-10T06:15:56;99905.11;;;15.49;27.95
63339;BME280;70568;51.378;-1.342;2023-06-10T06:18:24;99902.91;;;14.60;28.39
63339;BME280;70568;51.378;-1.342;2023-06-10T06:20:50;99901.34;;;15.90;27.90
63339;BME280;70568;51.378;-1.342;2023-06-10T06:23:17;99906.80;;;12.73;29.70
63339;BME280;70568;51.378;-1.342;2023-06-10T06:25:44;99905.49;;;17.68;26.73
63339;BME280;70568;51.378;-1.342;2023-06-10T06:28:11;99908.44;;;16.07;28.15
63339;BME280;70568;51.378;-1.342;2023-06-10T06:30:38;99909.15;;;15.30;28.75
63339;BME280;70568;51.378;-1.342;2023-06-10T06:33:05;99907.39;;;15.55;27.74
63339;BME280;70568;51.378;-1.342;2023-06-10T06:35:33;99902.37;;;16.58;26.89
63339;BME280;70568;51.378;-1.342;2023-06-10T06:38:00;99901.09;;;16.45;27.03
63339;BME280;70568;51.378;-1.342;2023-06-10T06:40:27;99902.27;;;15.41;27.40
63339;BME280;70568;51.378;-1.342;2023-06-10T06:42:53;99904.61;;;16.41;27.20
63339;BME280;70568;51.378;-1.342;2023-06-10T06:45:21;99908.77;;;14.51;27.88
63339;BME280;70568;51.378;-1.342;2023-06-10T06:47:48;99911.43;;;16.21;27.10
63339;BME280;70568;51.378;-1.342;2023-06-10T06:50:15;99911.89;;;16.66;27.40
63339;BME280;70568;51.378;-1.342;2023-06-10T06:52:42;99912.90;;;15.92;26.80
63339;BME280;70568;51.378;-1.342;2023-06-10T06:55:10;99910.93;;;16.93;27.00
63339;BME280;70568;51.378;-1.342;2023-06-10T06:57:37;99908.24;;;16.03;27.07
63339;BME280;70568;51.378;-1.342;2023-06-10T07:00:04;99907.94;;;16.15;27.37
63339;BME280;70568;51.378;-1.342;2023-06-10T07:02:31;99908.22;;;16.65;26.35
63339;BME280;70568;51.378;-1.342;2023-06-10T07:04:58;99910.35;;;15.98;27.35
63339;BME280;70568;51.378;-1.342;2023-06-10T07:07:25;99909.47;;;16.23;26.82
63339;BME280;70568;51.378;-1.342;2023-06-10T07:09:52;99909.15;;;16.98;26.63
63339;BME280;70568;51.378;-1.342;2023-06-10T07:12:18;99914.38;;;17.91;26.21
63339;BME280;70568;51.378;-1.342;2023-06-10T07:14:45;99914.14;;;16.63;27.98
63339;BME280;70568;51.378;-1.342;2023-06-10T07:17:12;99910.18;;;16.37;26.75
63339;BME280;70568;51.378;-1.342;2023-06-10T07:19:39;99909.08;;;16.93;26.54
63339;BME280;70568;51.378;-1.342;2023-06-10T07:22:06;99907.67;;;14.34;28.41
63339;BME280;70568;51.378;-1.342;2023-06-10T07:24:33;99909.39;;;17.63;27.55
63339;BME280;70568;51.378;-1.342;2023-06-10T07:26:59;99907.65;;;17.69;26.62
63339;BME280;70568;51.378;-1.342;2023-06-10T07:29:26;99909.68;;;16.85;26.23
63339;BME280;70568;51.378;-1.342;2023-06-10T07:31:53;99913.47;;;16.25;26.60
63339;BME280;70568;51.378;-1.342;2023-06-10T07:34:19;99915.08;;;17.51;25.89
63339;BME280;70568;51.378;-1.342;2023-06-10T07:36:46;99917.90;;;18.54;25.82
63339;BME280;70568;51.378;-1.342;2023-06-10T07:39:12;99916.45;;;18.75;25.62
63339;BME280;70568;51.378;-1.342;2023-06-10T07:41:39;99911.83;;;18.17;25.59
63339;BME280;70568;51.378;-1.342;2023-06-10T07:44:06;99913.54;;;19.10;25.48
63339;BME280;70568;51.378;-1.342;2023-06-10T07:46:33;99913.49;;;18.39;25.34
63339;BME280;70568;51.378;-1.342;2023-06-10T07:49:00;99916.13;;;19.89;24.80
63339;BME280;70568;51.378;-1.342;2023-06-10T07:51:27;99914.61;;;17.54;25.76
63339;BME280;70568;51.378;-1.342;2023-06-10T07:53:53;99914.48;;;18.91;24.59
63339;BME280;70568;51.378;-1.342;2023-06-10T07:56:20;99916.40;;;18.82;24.58
63339;BME280;70568;51.378;-1.342;2023-06-10T07:58:47;99914.14;;;19.44;24.70
63339;BME280;70568;51.378;-1.342;2023-06-10T08:01:13;99916.64;;;20.21;24.28
63339;BME280;70568;51.378;-1.342;2023-06-10T08:03:40;99919.11;;;18.85;25.62
63339;BME280;70568;51.378;-1.342;2023-06-10T08:06:07;99921.23;;;19.82;25.42
63339;BME280;70568;51.378;-1.342;2023-06-10T08:08:33;99919.47;;;18.44;25.27
63339;BME280;70568;51.378;-1.342;2023-06-10T08:11:00;99915.83;;;18.93;25.62
63339;BME280;70568;51.378;-1.342;2023-06-10T08:13:27;99913.17;;;19.00;25.14
63339;BME280;70568;51.378;-1.342;2023-06-10T08:15:53;99912.64;;;18.71;24.42
63339;BME280;70568;51.378;-1.342;2023-06-10T08:18:20;99912.18;;;20.20;24.01
63339;BME280;70568;51.378;-1.342;2023-06-10T08:20:48;99915.29;;;17.49;24.35
63339;BME280;70568;51.378;-1.342;2023-06-10T08:23:14;99918.81;;;20.60;23.43
63339;BME280;70568;51.378;-1.342;2023-06-10T08:25:41;99918.72;;;19.70;24.40
63339;BME280;70568;51.378;-1.342;2023-06-10T08:28:09;99920.08;;;19.89;24.09
63339;BME280;70568;51.378;-1.342;2023-06-10T08:30:37;99917.21;;;19.36;24.18
63339;BME280;70568;51.378;-1.342;2023-06-10T08:33:04;99919.11;;;19.71;23.88
63339;BME280;70568;51.378;-1.342;2023-06-10T08:35:31;99915.62;;;20.59;23.21
63339;BME280;70568;51.378;-1.342;2023-06-10T08:37:57;99916.76;;;18.80;24.20
63339;BME280;70568;51.378;-1.342;2023-06-10T08:40:24;99910.63;;;19.83;24.25
63339;BME280;70568;51.378;-1.342;2023-06-10T08:43:00;99914.82;;;19.44;24.36
63339;BME280;70568;51.378;-1.342;2023-06-10T08:45:30;99914.40;;;19.94;24.63
63339;BME280;70568;51.378;-1.342;2023-06-10T08:47:57;99918.57;;;20.65;24.10
63339;BME280;70568;51.378;-1.342;2023-06-10T08:50:26;99921.00;;;20.00;24.33
63339;BME280;70568;51.378;-1.342;2023-06-10T08:52:58;99918.55;;;19.35;25.09
63339;BME280;70568;51.378;-1.342;2023-06-10T08:55:29;99918.67;;;19.37;24.48
63339;BME280;70568;51.378;-1.342;2023-06-10T08:57:57;99913.23;;;21.69;23.39
63339;BME280;70568;51.378;-1.342;2023-06-10T09:00:26;99912.77;;;20.57;23.10
63339;BME280;70568;51.378;-1.342;2023-06-10T09:02:52;99911.60;;;20.60;23.09
63339;BME280;70568;51.378;-1.342;2023-06-10T09:05:19;99912.75;;;19.69;24.67
63339;BME280;70568;51.378;-1.342;2023-06-10T09:07:48;99913.23;;;20.29;23.89
63339;BME280;70568;51.378;-1.342;2023-06-10T09:10:15;99910.97;;;21.04;23.37
63339;BME280;70568;51.378;-1.342;2023-06-10T09:12:42;99910.91;;;19.46;23.37
63339;BME280;70568;51.378;-1.342;2023-06-10T09:15:10;99912.07;;;22.73;21.98
63339;BME280;70568;51.378;-1.342;2023-06-10T09:17:37;99910.59;;;20.72;24.15
63339;BME280;70568;51.378;-1.342;2023-06-10T09:20:05;99911.59;;;21.05;23.33
63339;BME280;70568;51.378;-1.342;2023-06-10T09:22:33;99908.17;;;19.57;23.88
63339;BME280;70568;51.378;-1.342;2023-06-10T09:25:04;99912.63;;;19.32;24.78
63339;BME280;70568;51.378;-1.342;2023-06-10T09:27:31;99912.88;;;19.55;24.89
63339;BME280;70568;51.378;-1.342;2023-06-10T09:29:57;99911.08;;;21.14;23.20
63339;BME280;70568;51.378;-1.342;2023-06-10T09:32:24;99909.82;;;21.69;23.55
63339;BME280;70568;51.378;-1.342;2023-06-10T09:34:51;99910.98;;;20.32;23.89
63339;BME280;70568;51.378;-1.342;2023-06-10T09:37:20;99918.27;;;19.53;24.95
63339;BME280;70568;51.378;-1.342;2023-06-10T09:40:01;99913.34;;;21.90;22.87
63339;BME280;70568;51.378;-1.342;2023-06-10T09:42:32;99913.26;;;19.25;24.00
63339;BME280;70568;51.378;-1.342;2023-06-10T09:44:58;99917.36;;;20.58;23.82
63339;BME280;70568;51.378;-1.342;2023-06-10T09:47:25;99914.01;;;21.50;22.87
63339;BME280;70568;51.378;-1.342;2023-06-10T09:49:52;99915.99;;;23.01;22.42
63339;BME280;70568;51.378;-1.342;2023-06-10T09:52:21;99913.46;;;22.27;22.97
63339;BME280;70568;51.378;-1.342;2023-06-10T09:54:48;99904.52;;;23.06;21.80
63339;BME280;70568;51.378;-1.342;2023-06-10T09:57:16;99905.42;;;21.93;22.44
63339;BME280;70568;51.378;-1.342;2023-06-10T09:59:44;99905.63;;;22.84;22.11
63339;BME280;70568;51.378;-1.342;2023-06-10T10:02:13;99900.29;;;23.33;22.05
63339;BME280;70568;51.378;-1.342;2023-06-10T10:04:40;99900.15;;;22.78;22.04
63339;BME280;70568;51.378;-1.342;2023-06-10T10:07:08;99902.78;;;19.17;24.97
63339;BME280;70568;51.378;-1.342;2023-06-10T10:09:35;99899.67;;;24.03;21.42
63339;BME280;70568;51.378;-1.342;2023-06-10T10:12:08;99902.19;;;22.96;22.48
63339;BME280;70568;51.378;-1.342;2023-06-10T10:14:36;99899.01;;;22.38;23.08
63339;BME280;70568;51.378;-1.342;2023-06-10T10:17:04;99902.46;;;22.14;22.94
63339;BME280;70568;51.378;-1.342;2023-06-10T10:19:39;99901.13;;;22.33;22.82
63339;BME280;70568;51.378;-1.342;2023-06-10T10:22:08;99897.41;;;23.03;22.39
63339;BME280;70568;51.378;-1.342;2023-06-10T10:24:40;99900.37;;;22.77;21.11
63339;BME280;70568;51.378;-1.342;2023-06-10T10:27:16;99895.96;;;24.09;20.37
63339;BME280;70568;51.378;-1.342;2023-06-10T10:29:47;99898.19;;;22.68;22.61
63339;BME280;70568;51.378;-1.342;2023-06-10T10:32:16;99895.53;;;23.37;22.34
63339;BME280;70568;51.378;-1.342;2023-06-10T10:34:48;99895.96;;;23.61;21.67
63339;BME280;70568;51.378;-1.342;2023-06-10T10:37:16;99891.51;;;22.60;20.86
63339;BME280;70568;51.378;-1.342;2023-06-10T10:39:45;99889.91;;;23.56;21.49
63339;BME280;70568;51.378;-1.342;2023-06-10T10:42:12;99889.00;;;23.92;20.64
63339;BME280;70568;51.378;-1.342;2023-06-10T10:44:40;99885.00;;;24.41;20.31
63339;BME280;70568;51.378;-1.342;2023-06-10T10:47:08;99884.23;;;24.00;21.06
63339;BME280;70568;51.378;-1.342;2023-06-10T10:49:37;99882.40;;;24.16;20.23
63339;BME280;70568;51.378;-1.342;2023-06-10T10:52:04;99879.64;;;24.37;19.74
63339;BME280;70568;51.378;-1.342;2023-06-10T10:54:33;99881.37;;;24.48;20.46
63339;BME280;70568;51.378;-1.342;2023-06-10T10:57:17;99881.12;;;22.10;21.62
63339;BME280;70568;51.378;-1.342;2023-06-10T10:59:46;99871.26;;;24.72;19.41
63339;BME280;70568;51.378;-1.342;2023-06-10T11:02:16;99877.16;;;21.70;22.05
63339;BME280;70568;51.378;-1.342;2023-06-10T11:04:46;99875.28;;;23.38;20.63
63339;BME280;70568;51.378;-1.342;2023-06-10T11:07:13;99882.02;;;21.90;20.44
63339;BME280;70568;51.378;-1.342;2023-06-10T11:09:57;99877.78;;;23.23;20.09
63339;BME280;70568;51.378;-1.342;2023-06-10T11:12:24;99872.73;;;23.45;20.31
63339;BME280;70568;51.378;-1.342;2023-06-10T11:14:54;99874.18;;;23.58;20.42
63339;BME280;70568;51.378;-1.342;2023-06-10T11:17:22;99868.32;;;23.05;20.59
63339;BME280;70568;51.378;-1.342;2023-06-10T11:19:49;99869.72;;;22.74;20.74
63339;BME280;70568;51.378;-1.342;2023-06-10T11:22:17;99870.15;;;24.65;18.89
63339;BME280;70568;51.378;-1.342;2023-06-10T11:24:47;99864.60;;;26.21;19.32
63339;BME280;70568;51.378;-1.342;2023-06-10T11:27:15;99864.51;;;25.09;18.85
63339;BME280;70568;51.378;-1.342;2023-06-10T11:29:58;99867.78;;;24.80;19.21
63339;BME280;70568;51.378;-1.342;2023-06-10T11:32:44;99862.55;;;26.87;18.25
63339;BME280;70568;51.378;-1.342;2023-06-10T11:35:11;99866.23;;;26.04;18.72
63339;BME280;70568;51.378;-1.342;2023-06-10T11:37:38;99867.04;;;23.37;19.99
63339;BME280;70568;51.378;-1.342;2023-06-10T11:40:07;99862.08;;;25.65;18.28
63339;BME280;70568;51.378;-1.342;2023-06-10T11:42:39;99862.36;;;21.99;19.72
63339;BME280;70568;51.378;-1.342;2023-06-10T11:45:07;99862.82;;;23.16;20.50
63339;BME280;70568;51.378;-1.342;2023-06-10T11:47:34;99866.85;;;25.25;19.42
63339;BME280;70568;51.378;-1.342;2023-06-10T11:50:01;99860.74;;;24.87;18.81
63339;BME280;70568;51.378;-1.342;2023-06-10T11:52:28;99864.53;;;22.34;20.37
63339;BME280;70568;51.378;-1.342;2023-06-10T11:54:56;99867.91;;;23.81;19.86
63339;BME280;70568;51.378;-1.342;2023-06-10T11:57:22;99861.67;;;23.55;19.90
63339;BME280;70568;51.378;-1.342;2023-06-10T11:59:49;99860.05;;;23.36;19.22
63339;BME280;70568;51.378;-1.342;2023-06-10T12:02:16;99858.99;;;25.90;18.27
63339;BME280;70568;51.378;-1.342;2023-06-10T12:04:43;99860.18;;;24.95;20.12
63339;BME280;70568;51.378;-1.342;2023-06-10T12:07:17;99855.52;;;23.69;19.79
63339;BME280;70568;51.378;-1.342;2023-06-10T12:09:44;99859.85;;;24.68;20.47
63339;BME280;70568;51.378;-1.342;2023-06-10T12:12:11;99856.64;;;24.85;19.22
63339;BME280;70568;51.378;-1.342;2023-06-10T12:14:55;99861.51;;;24.04;19.10
63339;BME280;70568;51.378;-1.342;2023-06-10T12:17:24;99860.81;;;25.40;17.97
63339;BME280;70568;51.378;-1.342;2023-06-10T12:20:03;99857.04;;;23.35;18.74
63339;BME280;70568;51.378;-1.342;2023-06-10T12:22:36;99849.34;;;25.81;17.70
63339;BME280;70568;51.378;-1.342;2023-06-10T12:25:04;99850.18;;;24.86;19.60
63339;BME280;70568;51.378;-1.342;2023-06-10T12:27:32;99848.24;;;26.09;18.13
63339;BME280;70568;51.378;-1.342;2023-06-10T12:29:59;99842.26;;;24.47;18.93
63339;BME280;70568;51.378;-1.342;2023-06-10T12:32:35;99841.91;;;25.15;19.14
63339;BME280;70568;51.378;-1.342;2023-06-10T12:35:04;99844.09;;;22.79;18.85
63339;BME280;70568;51.378;-1.342;2023-06-10T12:37:31;99839.34;;;23.49;19.55
63339;BME280;70568;51.378;-1.342;2023-06-10T12:40:00;99846.08;;;22.95;19.42
63339;BME280;70568;51.378;-1.342;2023-06-10T12:42:27;99840.64;;;23.38;19.99
63339;BME280;70568;51.378;-1.342;2023-06-10T12:44:53;99840.67;;;24.35;17.78
63339;BME280;70568;51.378;-1.342;2023-06-10T12:47:29;99836.56;;;25.84;17.56
63339;BME280;70568;51.378;-1.342;2023-06-10T12:49:57;99828.93;;;25.97;17.24
63339;BME280;70568;51.378;-1.342;2023-06-10T12:52:24;99826.33;;;24.58;17.65